createdAt,value
2018-09-01T00:00:31.458Z,101303.89
2018-09-01T00:03:19.689Z,101310.05
2018-09-01T00:06:08.568Z,101309.87
2018-09-01T00:15:18.157Z,101319.30
2018-09-01T00:18:05.501Z,101323.64
2018-09-01T00:21:00.597Z,101326.06
2018-09-01T00:26:58.532Z,101321.19
2018-09-01T00:32:53.633Z,101303.06
2018-09-01T00:39:03.579Z,101302.31
2018-09-01T00:45:01.555Z,101295.39
2018-09-01T00:47:48.777Z,101294.18
2018-09-01T00:53:58.278Z,101298.39
2018-09-01T00:59:52.491Z,101298.94
2018-09-01T01:02:40.816Z,101297.99
2018-09-01T01:05:43.915Z,101301.54
2018-09-01T01:08:32.006Z,101291.00
2018-09-01T01:11:20.354Z,101289.67
2018-09-01T01:20:21.459Z,101304.25
2018-09-01T01:23:24.564Z,101312.93
2018-09-01T01:26:19.583Z,101316.44
2018-09-01T01:29:24.808Z,101324.87
2018-09-01T01:32:12.516Z,101321.22
2018-09-01T01:41:30.981Z,101320.89
2018-09-01T01:47:25.881Z,101322.27
2018-09-01T01:50:13.145Z,101319.19
2018-09-01T01:53:09.854Z,101322.27
2018-09-01T01:56:05.421Z,101336.06
2018-09-01T02:08:26.957Z,101330.71
2018-09-01T02:11:30.098Z,101336.13
2018-09-01T02:14:18.481Z,101341.56
2018-09-01T02:17:07.027Z,101336.22
2018-09-01T02:23:16.181Z,101329.94
2018-09-01T02:26:04.786Z,101331.07
2018-09-01T02:29:00.342Z,101328.91
2018-09-01T02:35:01.988Z,101326.81
2018-09-01T02:37:49.620Z,101321.97
2018-09-01T02:40:36.912Z,101326.69
2018-09-01T02:43:25.943Z,101331.83
2018-09-01T02:46:14.019Z,101329.33
2018-09-01T02:49:05.641Z,101331.68
2018-09-01T02:51:56.684Z,101338.89
2018-09-01T03:04:10.401Z,101348.97
2018-09-01T03:06:57.888Z,101357.07
2018-09-01T03:09:55.993Z,101345.32
2018-09-01T03:15:51.796Z,101356.32
2018-09-01T03:18:40.678Z,101351.56
2018-09-01T03:30:48.117Z,101355.71
2018-09-01T03:36:42.244Z,101347.65
2018-09-01T03:39:29.825Z,101338.55
2018-09-01T03:42:32.614Z,101348.43
2018-09-01T03:45:35.316Z,101349.57
2018-09-01T03:48:38.720Z,101356.05
2018-09-01T03:51:34.431Z,101360.65
2018-09-01T03:57:29.279Z,101356.47
2018-09-01T04:00:24.948Z,101359.90
2018-09-01T04:06:19.028Z,101354.42
2018-09-01T04:15:21.685Z,101359.17
2018-09-01T04:18:19.791Z,101364.41
2018-09-01T04:24:14.048Z,101363.41
2018-09-01T04:27:09.400Z,101363.33
2018-09-01T04:33:03.486Z,101360.08
2018-09-01T04:39:04.885Z,101371.97
2018-09-01T04:42:00.153Z,101374.43
2018-09-01T04:44:47.846Z,101382.42
2018-09-01T04:47:43.164Z,101382.49
2018-09-01T04:50:30.893Z,101398.30
2018-09-01T04:53:18.352Z,101408.83
2018-09-01T05:05:32.313Z,101407.50
2018-09-01T05:14:32.892Z,101418.32
2018-09-01T05:17:20.055Z,101428.20
2018-09-01T05:23:21.900Z,101428.77
2018-09-01T05:35:45.218Z,101425.21
2018-09-01T05:38:32.882Z,101424.75
2018-09-01T05:41:21.702Z,101429.02
2018-09-01T05:44:16.899Z,101425.89
2018-09-01T05:47:04.979Z,101428.97
2018-09-01T05:49:54.410Z,101436.65
2018-09-01T05:52:42.075Z,101432.06
2018-09-01T05:58:53.877Z,101426.75
2018-09-01T06:01:49.247Z,101433.37
2018-09-01T06:04:38.557Z,101436.12
2018-09-01T06:07:25.953Z,101440.71
2018-09-01T06:10:29.437Z,101441.16
2018-09-01T06:19:37.405Z,101449.21
2018-09-01T06:22:32.302Z,101451.02
2018-09-01T06:28:26.441Z,101444.98
2018-09-01T06:31:29.854Z,101451.15
2018-09-01T06:34:25.038Z,101451.64
2018-09-01T06:37:13.425Z,101449.92
2018-09-01T06:40:16.509Z,101448.19
2018-09-01T06:43:06.925Z,101445.59
2018-09-01T06:45:55.482Z,101446.83
2018-09-01T06:48:43.100Z,101442.44
2018-09-01T06:51:36.036Z,101446.34
2018-09-01T06:54:23.473Z,101458.50
2018-09-01T06:57:11.839Z,101450.02
2018-09-01T07:00:06.830Z,101452.56
2018-09-01T07:02:54.211Z,101454.42
2018-09-01T07:05:41.687Z,101460.83
2018-09-01T07:11:44.834Z,101461.45
2018-09-01T07:14:34.141Z,101462.84
2018-09-01T07:17:21.765Z,101463.74
2018-09-01T07:20:10.356Z,101473.73
2018-09-01T07:22:59.007Z,101474.30
2018-09-01T07:25:54.227Z,101483.55
2018-09-01T07:28:42.981Z,101481.48
2018-09-01T07:31:30.497Z,101480.47
2018-09-01T07:34:17.253Z,101483.29
2018-09-01T07:37:04.661Z,101483.77
2018-09-01T07:39:52.265Z,101493.17
2018-09-01T07:42:47.384Z,101487.23
2018-09-01T07:45:35.515Z,101488.77
2018-09-01T07:48:22.292Z,101494.81
2018-09-01T07:51:10.693Z,101497.73
2018-09-01T07:53:58.040Z,101496.86
2018-09-01T07:56:46.627Z,101499.00
2018-09-01T08:05:54.333Z,101498.04
2018-09-01T08:15:09.824Z,101509.77
2018-09-01T08:21:07.169Z,101506.56
2018-09-01T08:23:55.132Z,101498.89
2018-09-01T08:26:42.519Z,101512.31
2018-09-01T08:29:30.858Z,101512.81
2018-09-01T08:38:32.496Z,101520.88
2018-09-01T08:41:21.086Z,101521.51
2018-09-01T08:44:08.633Z,101519.47
2018-09-01T08:50:02.513Z,101528.37
2018-09-01T08:52:50.923Z,101522.36
2018-09-01T08:55:39.618Z,101514.65
2018-09-01T08:58:27.695Z,101518.59
2018-09-01T09:04:28.870Z,101516.77
2018-09-01T09:07:17.137Z,101525.08
2018-09-01T09:10:04.582Z,101513.39
2018-09-01T09:12:52.695Z,101516.89
2018-09-01T09:15:41.045Z,101522.20
2018-09-01T09:18:29.319Z,101517.17
2018-09-01T09:21:16.420Z,101512.41
2018-09-01T09:24:03.634Z,101508.53
2018-09-01T09:26:52.261Z,101508.37
2018-09-01T09:29:41.650Z,101517.28
2018-09-01T09:32:30.460Z,101510.00
2018-09-01T09:35:18.141Z,101514.03
2018-09-01T09:38:05.384Z,101512.99
2018-09-01T09:40:53.685Z,101511.43
2018-09-01T09:43:41.437Z,101512.05
2018-09-01T09:46:29.703Z,101514.64
2018-09-01T09:49:17.311Z,101512.35
2018-09-01T09:52:04.687Z,101502.83
2018-09-01T09:54:52.281Z,101512.31
2018-09-01T09:57:39.837Z,101520.51
2018-09-01T10:00:43.579Z,101520.23
2018-09-01T10:03:32.318Z,101506.98
2018-09-01T10:06:20.111Z,101516.91
2018-09-01T10:09:07.282Z,101513.34
2018-09-01T10:11:55.867Z,101508.15
2018-09-01T10:14:42.957Z,101493.90
2018-09-01T10:17:31.501Z,101502.84
2018-09-01T10:20:18.822Z,101509.78
2018-09-01T10:23:06.423Z,101515.47
2018-09-01T10:25:53.915Z,101505.09
2018-09-01T10:28:41.311Z,101502.47
2018-09-01T10:31:36.551Z,101495.46
2018-09-01T10:34:24.923Z,101488.78
2018-09-01T10:37:20.402Z,101483.14
2018-09-01T10:40:08.036Z,101478.87
2018-09-01T10:49:07.811Z,101479.73
2018-09-01T10:52:04.891Z,101478.20
2018-09-01T10:54:53.667Z,101477.80
2018-09-01T10:57:43.291Z,101475.17
2018-09-01T11:03:45.303Z,101468.36
2018-09-01T11:06:33.503Z,101462.06
2018-09-01T11:12:27.496Z,101460.91
2018-09-01T11:15:15.559Z,101444.05
2018-09-01T11:18:05.000Z,101443.04
2018-09-01T11:20:52.997Z,101457.84
2018-09-01T11:23:50.062Z,101450.45
2018-09-01T11:26:37.885Z,101456.25
2018-09-01T11:29:27.898Z,101457.53
2018-09-01T11:35:21.724Z,101458.42
2018-09-01T11:41:33.357Z,101461.48
2018-09-01T11:44:24.270Z,101454.56
2018-09-01T11:50:33.825Z,101447.22
2018-09-01T11:53:24.104Z,101446.33
2018-09-01T11:56:12.409Z,101436.87
2018-09-01T11:58:59.825Z,101440.95
2018-09-01T12:01:47.939Z,101437.39
2018-09-01T12:04:35.563Z,101433.02
2018-09-01T12:07:31.462Z,101445.39
2018-09-01T12:10:20.986Z,101442.36
2018-09-01T12:16:19.391Z,101433.82
2018-09-01T12:19:08.984Z,101431.37
2018-09-01T12:22:04.441Z,101423.04
2018-09-01T12:24:52.705Z,101435.72
2018-09-01T12:27:47.964Z,101427.00
2018-09-01T12:30:43.249Z,101430.16
2018-09-01T12:33:31.898Z,101418.80
2018-09-01T12:36:21.251Z,101426.09
2018-09-01T12:39:09.181Z,101421.11
2018-09-01T12:41:56.441Z,101427.80
2018-09-01T12:44:50.299Z,101434.92
2018-09-01T12:47:39.874Z,101443.21
2018-09-01T12:53:33.334Z,101426.45
2018-09-01T12:56:25.885Z,101427.85
2018-09-01T12:59:13.494Z,101433.06
2018-09-01T13:02:06.519Z,101420.70
2018-09-01T13:04:54.701Z,101422.88
2018-09-01T13:07:42.758Z,101428.69
2018-09-01T13:10:29.906Z,101420.68
2018-09-01T13:16:38.681Z,101425.73
2018-09-01T13:19:27.603Z,101412.44
2018-09-01T13:22:16.342Z,101415.05
2018-09-01T13:25:04.446Z,101409.31
2018-09-01T13:28:09.394Z,101416.17
2018-09-01T13:30:56.843Z,101418.29
2018-09-01T13:33:45.141Z,101412.83
2018-09-01T13:36:33.300Z,101414.56
2018-09-01T13:42:27.632Z,101407.64
2018-09-01T13:45:14.954Z,101411.92
2018-09-01T13:48:18.068Z,101411.34
2018-09-01T13:51:08.279Z,101414.80
2018-09-01T13:53:56.802Z,101411.70
2018-09-01T13:56:44.877Z,101408.08
2018-09-01T13:59:39.799Z,101406.67
2018-09-01T14:02:27.975Z,101414.80
2018-09-01T14:05:19.345Z,101410.22
2018-09-01T14:08:10.461Z,101400.44
2018-09-01T14:10:58.063Z,101399.36
2018-09-01T14:13:46.674Z,101402.36
2018-09-01T14:16:42.935Z,101394.13
2018-09-01T14:19:30.426Z,101390.72
2018-09-01T14:22:18.939Z,101394.20
2018-09-01T14:25:06.927Z,101391.99
2018-09-01T14:34:22.307Z,101395.92
2018-09-01T14:37:09.438Z,101394.28
2018-09-01T14:43:03.543Z,101398.37
2018-09-01T14:45:52.066Z,101402.13
2018-09-01T14:48:41.175Z,101391.59
2018-09-01T14:51:29.314Z,101392.20
2018-09-01T14:54:17.006Z,101391.89
2018-09-01T14:58:04.073Z,101391.47
2018-09-01T15:00:52.488Z,101391.42
2018-09-01T15:03:41.061Z,101382.92
2018-09-01T15:09:34.309Z,101391.89
2018-09-01T15:12:22.912Z,101385.42
2018-09-01T15:15:12.232Z,101393.49
2018-09-01T15:18:03.158Z,101391.12
2018-09-01T15:20:54.535Z,101390.42
2018-09-01T15:23:42.580Z,101394.42
2018-09-01T15:26:37.988Z,101397.77
2018-09-01T15:32:41.313Z,101398.69
2018-09-01T15:35:28.486Z,101404.11
2018-09-01T15:38:16.060Z,101400.03
2018-09-01T15:44:10.898Z,101400.08
2018-09-01T15:47:06.053Z,101405.65
2018-09-01T15:50:01.935Z,101403.84
2018-09-01T15:59:06.406Z,101409.03
2018-09-01T16:02:01.982Z,101408.23
2018-09-01T16:08:03.570Z,101409.20
2018-09-01T16:10:58.635Z,101413.52
2018-09-01T16:13:49.885Z,101414.06
2018-09-01T16:16:45.051Z,101417.23
2018-09-01T16:19:34.555Z,101417.70
2018-09-01T16:22:29.620Z,101419.11
2018-09-01T16:25:24.720Z,101421.81
2018-09-01T16:28:12.215Z,101417.94
2018-09-01T16:31:07.088Z,101412.64
2018-09-01T16:33:55.033Z,101409.26
2018-09-01T16:36:42.397Z,101410.53
2018-09-01T16:39:37.221Z,101409.09
2018-09-01T16:42:24.993Z,101419.14
2018-09-01T16:45:20.003Z,101424.09
2018-09-01T16:57:26.519Z,101431.59
2018-09-01T17:00:14.956Z,101426.51
2018-09-01T17:03:03.562Z,101430.86
2018-09-01T17:05:51.130Z,101439.81
2018-09-01T17:12:00.008Z,101443.30
2018-09-01T17:14:48.394Z,101444.83
2018-09-01T17:20:50.634Z,101448.44
2018-09-01T17:23:41.777Z,101447.23
2018-09-01T17:32:43.678Z,101458.83
2018-09-01T17:38:45.494Z,101465.39
2018-09-01T17:44:47.516Z,101465.84
2018-09-01T17:47:50.593Z,101465.54
2018-09-01T17:50:39.588Z,101472.19
2018-09-01T17:53:28.924Z,101476.67
2018-09-01T17:56:18.563Z,101474.45
2018-09-01T17:59:13.696Z,101477.91
2018-09-01T18:02:08.946Z,101473.95
2018-09-01T18:04:59.073Z,101475.81
2018-09-01T18:11:01.481Z,101470.45
2018-09-01T18:13:49.110Z,101472.98
2018-09-01T18:19:58.851Z,101478.26
2018-09-01T18:25:53.731Z,101485.41
2018-09-01T18:28:42.251Z,101489.10
2018-09-01T18:43:56.279Z,101498.71
2018-09-01T18:56:07.888Z,101505.28
2018-09-01T19:11:33.400Z,101519.14
2018-09-01T19:14:23.093Z,101517.92
2018-09-01T19:17:12.673Z,101514.44
2018-09-01T19:23:08.631Z,101516.34
2018-09-01T19:32:09.988Z,101518.97
2018-09-01T19:38:19.237Z,101529.30
2018-09-01T19:44:15.053Z,101534.39
2018-09-01T19:47:10.074Z,101536.37
2018-09-01T19:53:09.530Z,101531.30
2018-09-01T19:55:56.797Z,101522.62
2018-09-01T20:01:59.130Z,101525.19
2018-09-01T20:04:55.604Z,101522.93
2018-09-01T20:10:51.619Z,101520.99
2018-09-01T20:13:39.173Z,101521.66
2018-09-01T20:16:27.673Z,101519.83
2018-09-01T20:19:17.502Z,101517.12
2018-09-01T20:31:30.085Z,101518.56
2018-09-01T20:34:25.527Z,101526.52
2018-09-01T20:37:17.846Z,101528.05
2018-09-01T20:40:07.960Z,101533.91
2018-09-01T20:58:35.313Z,101533.99
2018-09-01T21:20:23.649Z,101550.93
2018-09-01T21:26:23.087Z,101545.41
2018-09-01T21:38:31.158Z,101557.72
2018-09-01T21:44:25.732Z,101551.13
2018-09-01T21:47:13.145Z,101547.37
2018-09-01T21:50:02.092Z,101545.80
2018-09-01T21:52:51.356Z,101542.75
2018-09-01T21:55:39.339Z,101549.22
2018-09-01T22:01:35.151Z,101546.92
2018-09-01T22:07:29.918Z,101540.42
2018-09-01T22:10:17.663Z,101539.00
2018-09-01T22:13:06.010Z,101538.60
2018-09-01T22:16:05.240Z,101541.44
2018-09-01T22:18:53.218Z,101544.73
2018-09-01T22:27:54.029Z,101535.41
2018-09-01T22:49:28.589Z,101538.34
